< < Back
Terminal Aerodrome Forecast


Current Version              Previous Versions:   1  2  3  4  5  6  7  8  9  

Terminal Aerodrome Forecast

373
FTUS42 KGSP 112330
TAFAVL
TAF
KAVL 112330Z 1200/1224 34011KT P6SM FEW200
     FM120500 35005KT P6SM BKN100
     FM121000 34003KT P6SM -SN OVC025
     FM122000 32006KT P6SM SCT025 BKN035
     FM122100 32008KT P6SM OVC050=

Latest METAR

778
SAUS70 KWBC 121958
MTRAVL
METAR KAVL 121954Z 35010KT 10SM OVC035 03/M02 A3000 RMK AO2 SLP166
T00281022


USA.gov is the U.S. government's official web portal to all federal, state and local government web resources and services.